createdAt,value
2023-05-11T00:00:44.855Z,9.20
2023-05-11T00:03:12.221Z,9.20
2023-05-11T00:05:39.195Z,9.30
2023-05-11T00:08:06.199Z,9.30
2023-05-11T00:10:33.148Z,9.30
2023-05-11T00:13:00.062Z,9.20
2023-05-11T00:15:26.952Z,9.30
2023-05-11T00:17:53.945Z,9.30
2023-05-11T00:20:22.066Z,9.30
2023-05-11T00:22:48.961Z,9.30
2023-05-11T00:25:15.861Z,9.30
2023-05-11T00:27:45.933Z,9.30
2023-05-11T00:30:15.115Z,9.30
2023-05-11T00:32:43.231Z,9.30
2023-05-11T00:35:13.181Z,9.20
2023-05-11T00:37:40.409Z,9.20
2023-05-11T00:40:07.872Z,9.10
2023-05-11T00:42:35.009Z,9.00
2023-05-11T00:45:02.568Z,9.00
2023-05-11T00:47:29.966Z,9.00
2023-05-11T00:49:57.982Z,8.80
2023-05-11T00:52:25.183Z,8.70
2023-05-11T00:54:52.370Z,8.60
2023-05-11T00:57:19.454Z,8.50
2023-05-11T00:59:47.865Z,8.40
2023-05-11T01:02:14.945Z,8.40
2023-05-11T01:04:41.892Z,8.40
2023-05-11T01:07:46.957Z,8.40
2023-05-11T01:10:33.077Z,8.40
2023-05-11T01:13:09.617Z,8.40
2023-05-11T01:15:51.652Z,8.30
2023-05-11T01:18:46.535Z,8.30
2023-05-11T01:21:16.624Z,8.30
2023-05-11T01:23:43.589Z,8.30
2023-05-11T01:26:17.325Z,8.30
2023-05-11T01:29:21.336Z,8.30
2023-05-11T01:31:49.755Z,8.20
2023-05-11T01:34:30.656Z,8.10
2023-05-11T01:37:14.121Z,8.20
2023-05-11T01:39:51.526Z,8.10
2023-05-11T01:42:24.284Z,8.10
2023-05-11T01:44:54.624Z,8.00
2023-05-11T01:47:24.128Z,8.00
2023-05-11T01:49:52.464Z,7.90
2023-05-11T01:52:21.816Z,7.90
2023-05-11T01:54:52.517Z,7.70
2023-05-11T01:57:20.167Z,7.60
2023-05-11T01:59:50.051Z,7.70
2023-05-11T02:02:18.558Z,7.60
2023-05-11T02:04:46.921Z,7.50
2023-05-11T02:07:15.043Z,7.50
2023-05-11T02:09:42.878Z,7.50
2023-05-11T02:12:11.328Z,7.40
2023-05-11T02:14:39.259Z,7.40
2023-05-11T02:17:07.660Z,7.30
2023-05-11T02:19:36.174Z,7.30
2023-05-11T02:22:04.253Z,7.30
2023-05-11T02:24:32.545Z,7.20
2023-05-11T02:26:59.568Z,7.20
2023-05-11T02:29:26.931Z,7.20
2023-05-11T02:32:14.010Z,7.10
2023-05-11T02:34:52.428Z,7.10
2023-05-11T02:37:25.655Z,7.10
2023-05-11T02:40:02.511Z,7.00
2023-05-11T02:42:33.048Z,7.00
2023-05-11T02:45:07.383Z,7.00
2023-05-11T02:47:43.575Z,7.00
2023-05-11T02:50:11.342Z,7.10
2023-05-11T02:52:44.912Z,7.10
2023-05-11T02:55:13.393Z,7.10
2023-05-11T02:57:40.577Z,7.10
2023-05-11T03:00:08.597Z,7.20
2023-05-11T03:02:35.735Z,7.10
2023-05-11T03:05:02.803Z,7.20
2023-05-11T03:07:29.733Z,7.20
2023-05-11T03:09:56.711Z,7.30
2023-05-11T03:12:24.111Z,7.30
2023-05-11T03:14:52.457Z,7.30
2023-05-11T03:17:21.319Z,7.40
2023-05-11T03:19:49.085Z,7.40
2023-05-11T03:22:16.636Z,7.40
2023-05-11T03:24:44.163Z,7.40
2023-05-11T03:27:12.415Z,7.50
2023-05-11T03:29:42.977Z,7.50
2023-05-11T03:32:10.107Z,7.50
2023-05-11T03:34:37.209Z,7.60
2023-05-11T03:37:10.547Z,7.60
2023-05-11T03:39:39.710Z,7.80
2023-05-11T03:42:08.433Z,7.80
2023-05-11T03:44:36.340Z,7.90
2023-05-11T03:47:04.472Z,8.00
2023-05-11T03:49:31.697Z,8.10
2023-05-11T03:51:59.336Z,8.10
2023-05-11T03:54:26.785Z,8.10
2023-05-11T03:56:53.812Z,8.20
2023-05-11T03:59:21.376Z,8.30
2023-05-11T04:01:53.007Z,8.40
2023-05-11T04:04:21.309Z,8.40
2023-05-11T04:06:48.233Z,8.50
2023-05-11T04:09:15.143Z,8.50
2023-05-11T04:11:42.054Z,8.60
2023-05-11T04:14:08.986Z,8.70
2023-05-11T04:16:36.034Z,8.70
2023-05-11T04:19:03.112Z,8.80
2023-05-11T04:21:30.121Z,8.90
2023-05-11T04:23:57.009Z,8.90
2023-05-11T04:26:24.022Z,9.00
2023-05-11T04:28:50.964Z,9.00
2023-05-11T04:31:17.922Z,9.10
2023-05-11T04:33:45.075Z,9.20
2023-05-11T04:36:12.021Z,9.30
2023-05-11T04:38:39.209Z,9.40
2023-05-11T04:41:07.190Z,9.40
2023-05-11T04:43:34.951Z,9.50
2023-05-11T04:46:01.988Z,9.60
2023-05-11T04:48:28.907Z,9.70
2023-05-11T04:50:56.421Z,9.80
2023-05-11T04:53:24.038Z,9.90
2023-05-11T04:55:50.935Z,10.00
2023-05-11T04:58:17.841Z,10.10
2023-05-11T05:00:44.779Z,10.10
2023-05-11T05:03:11.775Z,10.20
2023-05-11T05:05:38.732Z,10.30
2023-05-11T05:08:05.656Z,10.40
2023-05-11T05:10:32.692Z,10.50
2023-05-11T05:12:59.702Z,10.50
2023-05-11T05:15:26.756Z,10.60
2023-05-11T05:17:53.858Z,10.70
2023-05-11T05:20:20.922Z,10.80
2023-05-11T05:22:47.851Z,10.80
2023-05-11T05:25:14.743Z,10.90
2023-05-11T05:27:41.633Z,11.00
2023-05-11T05:30:08.914Z,11.10
2023-05-11T05:32:35.849Z,11.20
2023-05-11T05:35:03.362Z,11.30
2023-05-11T05:37:30.336Z,11.40
2023-05-11T05:39:57.251Z,11.50
2023-05-11T05:42:24.250Z,11.60
2023-05-11T05:44:51.501Z,11.70
2023-05-11T05:47:18.428Z,11.80
2023-05-11T05:49:45.383Z,11.90
2023-05-11T05:52:12.334Z,12.00
2023-05-11T05:54:39.315Z,12.20
2023-05-11T05:57:06.642Z,12.30
2023-05-11T05:59:33.658Z,12.50
2023-05-11T06:02:00.592Z,12.70
2023-05-11T06:04:27.801Z,12.80
2023-05-11T06:06:55.991Z,13.00
2023-05-11T06:09:22.926Z,13.10
2023-05-11T06:11:49.884Z,13.30
2023-05-11T06:14:16.820Z,13.40
2023-05-11T06:16:43.932Z,13.50
2023-05-11T06:19:11.281Z,13.60
2023-05-11T06:21:38.316Z,13.60
2023-05-11T06:24:05.749Z,13.70
2023-05-11T06:26:32.654Z,13.90
2023-05-11T06:28:59.617Z,14.00
2023-05-11T06:31:26.778Z,14.00
2023-05-11T06:33:53.796Z,14.10
2023-05-11T06:36:20.748Z,14.20
2023-05-11T06:38:47.651Z,14.30
2023-05-11T06:41:14.543Z,14.40
2023-05-11T06:43:41.426Z,14.50
2023-05-11T06:46:08.432Z,14.50
2023-05-11T06:48:35.388Z,14.60
2023-05-11T06:51:02.351Z,14.80
2023-05-11T06:53:29.226Z,15.00
2023-05-11T06:55:56.395Z,15.10
2023-05-11T06:58:23.384Z,15.10
2023-05-11T07:00:50.337Z,15.40
2023-05-11T07:03:17.478Z,15.60
2023-05-11T07:05:44.556Z,15.70
2023-05-11T07:08:11.655Z,15.90
2023-05-11T07:10:38.711Z,16.00
2023-05-11T07:13:05.878Z,16.20
2023-05-11T07:15:32.886Z,16.30
2023-05-11T07:18:01.642Z,16.20
2023-05-11T07:20:28.617Z,16.30
2023-05-11T07:22:59.604Z,16.20
2023-05-11T07:25:26.744Z,16.30
2023-05-11T07:27:53.719Z,16.50
2023-05-11T07:30:21.101Z,16.40
2023-05-11T07:32:48.848Z,16.60
2023-05-11T07:35:15.901Z,16.70
2023-05-11T07:37:42.956Z,16.70
2023-05-11T07:40:10.170Z,16.70
2023-05-11T07:42:37.099Z,16.70
2023-05-11T07:45:04.257Z,16.80
2023-05-11T07:47:31.288Z,16.90
2023-05-11T07:49:58.264Z,16.90
2023-05-11T07:52:25.232Z,17.00
2023-05-11T07:54:52.309Z,17.10
2023-05-11T07:57:20.083Z,17.10
2023-05-11T07:59:47.097Z,17.20
2023-05-11T08:02:14.371Z,17.40
2023-05-11T08:04:41.334Z,17.50
2023-05-11T08:07:09.037Z,17.60
2023-05-11T08:09:36.449Z,17.80
2023-05-11T08:12:03.852Z,17.90
2023-05-11T08:14:30.782Z,18.20
2023-05-11T08:16:57.891Z,18.30
2023-05-11T08:19:24.873Z,18.40
2023-05-11T08:21:52.397Z,18.70
2023-05-11T08:24:19.425Z,18.90
2023-05-11T08:26:47.264Z,19.10
2023-05-11T08:29:14.450Z,19.10
2023-05-11T08:31:41.528Z,19.10
2023-05-11T08:34:18.422Z,19.20
2023-05-11T08:36:45.913Z,19.40
2023-05-11T08:39:13.062Z,19.40
2023-05-11T08:41:40.007Z,19.30
2023-05-11T08:44:07.767Z,19.60
2023-05-11T08:46:36.321Z,19.90
2023-05-11T08:49:03.556Z,19.90
2023-05-11T08:51:30.757Z,20.00
2023-05-11T08:53:59.781Z,20.10
2023-05-11T08:56:29.296Z,20.30
2023-05-11T08:58:57.064Z,20.20
2023-05-11T09:01:26.840Z,20.40
2023-05-11T09:03:54.852Z,20.50
2023-05-11T09:06:23.479Z,20.50
2023-05-11T09:08:50.567Z,20.60
2023-05-11T09:11:18.154Z,20.70
2023-05-11T09:13:45.776Z,20.70
2023-05-11T09:16:27.874Z,20.70
2023-05-11T09:19:02.531Z,20.60
2023-05-11T09:21:31.603Z,20.40
2023-05-11T09:24:01.821Z,20.40
2023-05-11T09:26:29.978Z,20.40
2023-05-11T09:31:45.889Z,20.10
2023-05-11T09:34:21.124Z,20.20
2023-05-11T09:36:56.717Z,20.40
2023-05-11T09:39:39.953Z,20.60
2023-05-11T09:42:16.392Z,20.80
2023-05-11T09:44:44.775Z,20.70
2023-05-11T09:47:19.527Z,20.70
2023-05-11T09:49:47.762Z,20.80
2023-05-11T09:52:16.718Z,20.90
2023-05-11T09:54:49.195Z,21.00
2023-05-11T09:57:30.669Z,20.90
2023-05-11T09:59:59.775Z,20.90
2023-05-11T10:02:31.110Z,21.00
2023-05-11T10:05:00.338Z,21.10
2023-05-11T10:07:27.299Z,21.20
2023-05-11T10:09:56.452Z,21.40
2023-05-11T10:12:25.814Z,21.40
2023-05-11T10:15:03.773Z,21.30
2023-05-11T10:17:31.991Z,21.50
2023-05-11T10:20:00.530Z,21.60
2023-05-11T10:22:28.860Z,21.80
2023-05-11T10:25:00.156Z,21.90
2023-05-11T10:27:27.660Z,21.90
2023-05-11T10:29:55.595Z,21.50
2023-05-11T10:32:22.819Z,21.90
2023-05-11T10:34:50.773Z,22.00
2023-05-11T10:37:18.291Z,22.00
2023-05-11T10:39:48.447Z,21.80
2023-05-11T10:42:42.978Z,21.80
2023-05-11T10:45:12.840Z,21.50
2023-05-11T10:47:48.605Z,21.80
2023-05-11T10:50:49.653Z,21.70
2023-05-11T10:54:14.547Z,21.70
2023-05-11T10:57:12.897Z,22.00
2023-05-11T11:00:09.706Z,21.90
2023-05-11T11:02:38.087Z,21.80
2023-05-11T11:05:09.877Z,21.40
2023-05-11T11:08:03.841Z,21.70
2023-05-11T11:10:43.869Z,21.60
2023-05-11T11:13:15.847Z,21.70
2023-05-11T11:15:55.093Z,21.90
2023-05-11T11:18:35.711Z,21.50
2023-05-11T11:21:04.294Z,21.80
2023-05-11T11:23:43.336Z,21.70
2023-05-11T11:26:18.864Z,21.80
2023-05-11T11:28:54.845Z,21.70
2023-05-11T11:31:30.282Z,21.50
2023-05-11T11:34:00.852Z,21.70
2023-05-11T11:36:55.824Z,21.30
2023-05-11T11:39:25.378Z,21.70
2023-05-11T11:42:05.708Z,21.70
2023-05-11T11:44:34.651Z,22.00
2023-05-11T11:47:23.322Z,22.20
2023-05-11T11:49:53.298Z,22.00
2023-05-11T11:52:29.545Z,21.50
2023-05-11T11:55:01.151Z,21.90
2023-05-11T11:57:33.906Z,21.80
2023-05-11T12:00:05.509Z,22.10
2023-05-11T12:02:34.349Z,22.40
2023-05-11T12:05:10.227Z,22.30
2023-05-11T12:07:41.313Z,22.10
2023-05-11T12:10:08.776Z,22.50
2023-05-11T12:12:37.800Z,22.60
2023-05-11T12:15:08.758Z,22.30
2023-05-11T12:17:39.075Z,22.30
2023-05-11T12:20:17.090Z,22.60
2023-05-11T12:22:46.456Z,22.60
2023-05-11T12:25:17.480Z,22.20
2023-05-11T12:28:01.084Z,21.40
2023-05-11T12:30:33.214Z,21.20
2023-05-11T12:33:01.704Z,21.70
2023-05-11T12:35:31.024Z,21.10
2023-05-11T12:38:05.071Z,21.00
2023-05-11T12:40:32.436Z,21.10
2023-05-11T12:43:00.992Z,21.10
2023-05-11T12:45:29.232Z,21.20
2023-05-11T12:47:57.335Z,21.00
2023-05-11T12:50:25.005Z,21.10
2023-05-11T12:52:52.768Z,21.40
2023-05-11T12:55:29.989Z,21.50
2023-05-11T12:58:18.760Z,21.30
2023-05-11T13:00:59.768Z,21.30
2023-05-11T13:03:29.417Z,21.50
2023-05-11T13:06:09.240Z,21.40
2023-05-11T13:08:44.052Z,21.20
2023-05-11T13:11:25.784Z,21.20
2023-05-11T13:13:54.294Z,21.40
2023-05-11T13:16:28.186Z,21.10
2023-05-11T13:19:03.525Z,21.30
2023-05-11T13:21:33.270Z,21.00
2023-05-11T13:24:01.485Z,20.80
2023-05-11T13:26:32.131Z,20.50
2023-05-11T13:29:10.187Z,20.70
2023-05-11T13:31:49.714Z,20.60
2023-05-11T13:34:17.645Z,20.80
2023-05-11T13:36:45.064Z,20.70
2023-05-11T13:39:12.251Z,21.00
2023-05-11T13:41:39.238Z,20.90
2023-05-11T13:44:06.359Z,20.90
2023-05-11T13:46:33.327Z,20.80
2023-05-11T13:49:00.968Z,20.60
2023-05-11T13:51:27.961Z,20.80
2023-05-11T13:53:55.328Z,20.70
2023-05-11T13:56:22.397Z,20.60
2023-05-11T13:58:49.625Z,20.60
2023-05-11T14:01:16.763Z,20.70
2023-05-11T14:03:43.796Z,20.80
2023-05-11T14:06:10.747Z,20.60
2023-05-11T14:08:38.135Z,20.70
2023-05-11T14:11:05.611Z,20.60
2023-05-11T14:13:32.591Z,20.60
2023-05-11T14:15:59.521Z,20.40
2023-05-11T14:18:26.739Z,20.60
2023-05-11T14:20:54.381Z,20.60
2023-05-11T14:23:21.563Z,20.70
2023-05-11T14:25:48.612Z,20.60
2023-05-11T14:28:15.676Z,20.50
2023-05-11T14:30:42.587Z,20.50
2023-05-11T14:33:09.657Z,20.70
2023-05-11T14:35:39.650Z,20.60
2023-05-11T14:38:06.906Z,20.50
2023-05-11T14:40:33.934Z,20.50
2023-05-11T14:43:01.473Z,20.60
2023-05-11T14:45:28.936Z,20.50
2023-05-11T14:47:56.377Z,20.60
2023-05-11T14:50:23.415Z,20.70
2023-05-11T14:52:50.460Z,20.60
2023-05-11T14:55:17.725Z,20.50
2023-05-11T14:57:44.789Z,20.60
2023-05-11T15:00:13.288Z,20.80
2023-05-11T15:02:40.334Z,20.60
2023-05-11T15:05:07.952Z,20.30
2023-05-11T15:07:35.109Z,20.20
2023-05-11T15:10:02.240Z,20.30
2023-05-11T15:12:29.456Z,19.90
2023-05-11T15:14:56.480Z,20.10
2023-05-11T15:17:23.420Z,20.00
2023-05-11T15:19:50.343Z,20.00
2023-05-11T15:22:17.581Z,20.00
2023-05-11T15:24:44.576Z,19.90
2023-05-11T15:27:11.473Z,19.80
2023-05-11T15:29:38.464Z,19.70
2023-05-11T15:32:05.864Z,19.80
2023-05-11T15:34:32.850Z,19.70
2023-05-11T15:37:00.369Z,19.70
2023-05-11T15:39:27.287Z,19.60
2023-05-11T15:41:54.248Z,19.60
2023-05-11T15:44:21.336Z,19.60
2023-05-11T15:46:50.857Z,19.50
2023-05-11T15:49:17.971Z,19.50
2023-05-11T15:51:44.898Z,19.40
2023-05-11T15:54:11.820Z,19.40
2023-05-11T15:56:38.724Z,19.40
2023-05-11T15:59:05.823Z,19.40
2023-05-11T16:01:32.803Z,19.20
2023-05-11T16:04:01.820Z,19.30
2023-05-11T16:06:28.978Z,19.20
2023-05-11T16:08:55.969Z,19.00
2023-05-11T16:11:23.985Z,19.00
2023-05-11T16:13:50.898Z,18.90
2023-05-11T16:16:18.100Z,18.90
2023-05-11T16:18:47.320Z,18.70
2023-05-11T16:21:15.049Z,18.70
2023-05-11T16:23:42.145Z,18.70
2023-05-11T16:26:09.775Z,18.50
2023-05-11T16:28:36.673Z,18.30
2023-05-11T16:31:03.636Z,18.30
2023-05-11T16:33:30.753Z,18.40
2023-05-11T16:35:57.784Z,18.30
2023-05-11T16:38:24.708Z,18.20
2023-05-11T16:40:51.597Z,18.10
2023-05-11T16:43:18.564Z,17.90
2023-05-11T16:45:48.901Z,17.80
2023-05-11T16:48:15.972Z,17.70
2023-05-11T16:50:43.156Z,17.60
2023-05-11T16:53:10.286Z,17.50
2023-05-11T16:55:37.186Z,17.50
2023-05-11T16:58:04.118Z,17.50
2023-05-11T17:00:34.117Z,17.40
2023-05-11T17:03:01.393Z,17.30
2023-05-11T17:05:28.511Z,17.30
2023-05-11T17:07:55.443Z,17.10
2023-05-11T17:10:22.527Z,17.10
2023-05-11T17:12:49.427Z,17.00
2023-05-11T17:15:16.527Z,16.90
2023-05-11T17:17:43.572Z,16.90
2023-05-11T17:20:10.857Z,16.90
2023-05-11T17:22:38.336Z,16.90
2023-05-11T17:25:06.241Z,16.80
2023-05-11T17:27:34.651Z,16.80
2023-05-11T17:30:01.594Z,16.70
2023-05-11T17:32:28.794Z,16.70
2023-05-11T17:34:56.377Z,16.70
2023-05-11T17:37:31.357Z,16.60
2023-05-11T17:40:02.130Z,16.50
2023-05-11T17:42:29.153Z,16.50
2023-05-11T17:44:56.320Z,16.40
2023-05-11T17:47:23.382Z,16.30
2023-05-11T17:49:50.579Z,16.20
2023-05-11T17:52:17.555Z,16.20
2023-05-11T17:54:44.750Z,16.10
2023-05-11T17:57:11.960Z,16.00
2023-05-11T17:59:38.824Z,16.00
2023-05-11T18:02:05.823Z,15.90
2023-05-11T18:04:32.824Z,15.90
2023-05-11T18:07:00.367Z,15.80
2023-05-11T18:09:27.261Z,15.80
2023-05-11T18:11:54.237Z,15.70
2023-05-11T18:14:21.298Z,15.70
2023-05-11T18:16:49.633Z,15.60
2023-05-11T18:19:18.077Z,15.50
2023-05-11T18:21:45.518Z,15.50
2023-05-11T18:24:14.645Z,15.40
2023-05-11T18:26:42.127Z,15.30
2023-05-11T18:29:09.128Z,15.30
2023-05-11T18:31:36.407Z,15.20
2023-05-11T18:34:04.400Z,15.20
2023-05-11T18:36:31.396Z,15.10
2023-05-11T18:38:58.401Z,15.10
2023-05-11T18:41:25.336Z,15.00
2023-05-11T18:43:53.034Z,14.90
2023-05-11T18:46:21.482Z,14.80
2023-05-11T18:48:52.909Z,14.70
2023-05-11T18:51:22.440Z,14.70
2023-05-11T18:53:50.186Z,14.60
2023-05-11T18:56:17.414Z,14.50
2023-05-11T18:58:45.351Z,14.50
2023-05-11T19:01:12.607Z,14.50
2023-05-11T19:03:39.636Z,14.40
2023-05-11T19:06:07.669Z,14.30
2023-05-11T19:08:34.854Z,14.30
2023-05-11T19:11:07.441Z,14.20
2023-05-11T19:13:34.800Z,14.10
2023-05-11T19:16:04.289Z,14.10
2023-05-11T19:18:35.282Z,14.00
2023-05-11T19:21:04.958Z,13.90
2023-05-11T19:23:32.815Z,13.90
2023-05-11T19:26:00.028Z,13.90
2023-05-11T19:28:27.067Z,13.70
2023-05-11T19:31:04.618Z,13.60
2023-05-11T19:33:31.914Z,13.60
2023-05-11T19:35:59.158Z,13.60
2023-05-11T19:38:26.153Z,13.40
2023-05-11T19:40:53.453Z,13.30
2023-05-11T19:43:20.903Z,13.30
2023-05-11T19:45:47.901Z,13.40
2023-05-11T19:48:14.897Z,13.30
2023-05-11T19:50:41.913Z,13.30
2023-05-11T19:53:08.851Z,13.20
2023-05-11T19:55:35.942Z,13.00
2023-05-11T19:58:03.444Z,13.00
2023-05-11T20:00:30.578Z,12.90
2023-05-11T20:02:57.682Z,12.90
2023-05-11T20:05:24.911Z,12.70
2023-05-11T20:07:51.848Z,12.80
2023-05-11T20:10:19.054Z,12.60
2023-05-11T20:12:46.190Z,12.60
2023-05-11T20:15:13.193Z,12.50
2023-05-11T20:17:40.205Z,12.50
2023-05-11T20:20:08.670Z,12.30
2023-05-11T20:22:36.853Z,12.20
2023-05-11T20:25:09.628Z,12.10
2023-05-11T20:27:43.864Z,12.00
2023-05-11T20:30:11.325Z,11.70
2023-05-11T20:32:38.287Z,11.60
2023-05-11T20:35:06.571Z,11.50
2023-05-11T20:37:33.486Z,11.40
2023-05-11T20:40:00.723Z,11.40
2023-05-11T20:42:27.662Z,11.20
2023-05-11T20:44:54.741Z,11.20
2023-05-11T20:47:22.006Z,11.20
2023-05-11T20:49:50.054Z,11.10
2023-05-11T20:52:17.838Z,10.90
2023-05-11T20:54:44.831Z,10.80
2023-05-11T20:57:11.736Z,10.90
2023-05-11T21:02:08.639Z,10.80
2023-05-11T21:04:36.170Z,10.90
2023-05-11T21:07:03.408Z,10.90
2023-05-11T21:09:30.679Z,10.80
2023-05-11T21:11:57.552Z,10.70
2023-05-11T21:14:24.474Z,10.70
2023-05-11T21:16:51.461Z,10.70
2023-05-11T21:19:18.617Z,10.70
2023-05-11T21:21:48.529Z,10.60
2023-05-11T21:24:16.414Z,10.50
2023-05-11T21:26:43.772Z,10.60
2023-05-11T21:29:13.102Z,10.70
2023-05-11T21:31:40.093Z,10.60
2023-05-11T21:34:07.024Z,10.70
2023-05-11T21:36:33.929Z,10.60
2023-05-11T21:39:00.951Z,10.60
2023-05-11T21:41:27.911Z,10.60
2023-05-11T21:43:54.857Z,10.60
2023-05-11T21:46:21.962Z,10.70
2023-05-11T21:48:48.985Z,10.70
2023-05-11T21:51:16.074Z,10.70
2023-05-11T21:53:43.028Z,10.60
2023-05-11T21:56:10.024Z,10.60
2023-05-11T21:58:37.170Z,10.50
2023-05-11T22:01:04.231Z,10.50
2023-05-11T22:03:31.711Z,10.50
2023-05-11T22:05:59.054Z,10.50
2023-05-11T22:08:26.027Z,10.50
2023-05-11T22:10:52.909Z,10.60
2023-05-11T22:13:19.875Z,10.60
2023-05-11T22:15:47.138Z,10.70
2023-05-11T22:18:14.117Z,10.70
2023-05-11T22:20:41.094Z,10.50
2023-05-11T22:23:08.068Z,10.50
2023-05-11T22:25:35.021Z,10.50
2023-05-11T22:28:02.000Z,10.60
2023-05-11T22:30:28.955Z,10.60
2023-05-11T22:32:56.230Z,10.50
2023-05-11T22:35:23.250Z,10.60
2023-05-11T22:37:50.518Z,10.40
2023-05-11T22:40:18.588Z,10.40
2023-05-11T22:42:45.700Z,10.40
2023-05-11T22:45:12.671Z,10.40
2023-05-11T22:47:40.045Z,10.50
2023-05-11T22:50:11.665Z,10.50
2023-05-11T22:52:39.107Z,10.50
2023-05-11T22:55:06.647Z,10.50
2023-05-11T22:57:33.774Z,10.60
2023-05-11T23:00:00.707Z,10.60
2023-05-11T23:02:29.656Z,10.50
2023-05-11T23:04:56.725Z,10.40
2023-05-11T23:07:23.751Z,10.40
2023-05-11T23:09:52.950Z,10.50
2023-05-11T23:12:20.194Z,10.40
2023-05-11T23:14:47.341Z,10.40
2023-05-11T23:17:14.431Z,10.40
2023-05-11T23:19:41.622Z,10.40
2023-05-11T23:22:08.535Z,10.40
2023-05-11T23:24:35.476Z,10.30
2023-05-11T23:27:03.405Z,10.40
2023-05-11T23:29:30.468Z,10.30
2023-05-11T23:31:57.454Z,10.30
2023-05-11T23:34:24.388Z,10.30
2023-05-11T23:36:51.352Z,10.20
2023-05-11T23:39:18.369Z,10.10
2023-05-11T23:41:45.513Z,10.00
2023-05-11T23:44:12.519Z,9.90
2023-05-11T23:46:39.458Z,9.90
2023-05-11T23:49:06.437Z,9.70
2023-05-11T23:51:33.577Z,9.70
2023-05-11T23:54:00.528Z,9.60
2023-05-11T23:56:27.494Z,9.50
2023-05-11T23:58:54.469Z,9.40
